sensor_id;sensor_type;location;lat;lon;timestamp;pressure;altitude;pressure_sealevel;temperature;humidity
55604;BME280;41468;48.838;9.330;2023-08-17T00:02:12;98436.56;;;21.04;100.00
55604;BME280;41468;48.838;9.330;2023-08-17T00:04:40;98435.78;;;21.04;100.00
55604;BME280;41468;48.838;9.330;2023-08-17T00:07:07;98440.72;;;20.96;100.00
55604;BME280;41468;48.838;9.330;2023-08-17T00:09:34;98429.63;;;20.96;100.00
55604;BME280;41468;48.838;9.330;2023-08-17T00:12:01;98435.25;;;20.92;100.00
55604;BME280;41468;48.838;9.330;2023-08-17T00:14:28;98436.22;;;20.86;100.00
55604;BME280;41468;48.838;9.330;2023-08-17T00:16:55;98433.00;;;20.87;100.00
55604;BME280;41468;48.838;9.330;2023-08-17T00:19:21;98438.03;;;20.92;100.00
55604;BME280;41468;48.838;9.330;2023-08-17T00:21:53;98427.13;;;20.85;100.00
55604;BME280;41468;48.838;9.330;2023-08-17T00:24:20;98431.88;;;20.85;100.00
55604;BME280;41468;48.838;9.330;2023-08-17T00:26:47;98429.44;;;20.87;100.00
55604;BME280;41468;48.838;9.330;2023-08-17T00:29:14;98424.06;;;20.96;100.00
55604;BME280;41468;48.838;9.330;2023-08-17T00:31:41;98417.28;;;20.97;100.00
55604;BME280;41468;48.838;9.330;2023-08-17T00:34:08;98410.81;;;21.04;100.00
55604;BME280;41468;48.838;9.330;2023-08-17T00:36:35;98406.91;;;20.85;100.00
55604;BME280;41468;48.838;9.330;2023-08-17T00:39:02;98410.72;;;20.91;100.00
55604;BME280;41468;48.838;9.330;2023-08-17T00:41:29;98413.84;;;20.93;100.00
55604;BME280;41468;48.838;9.330;2023-08-17T00:43:57;98419.72;;;20.95;100.00
55604;BME280;41468;48.838;9.330;2023-08-17T00:46:23;98411.38;;;20.95;100.00
55604;BME280;41468;48.838;9.330;2023-08-17T00:48:50;98409.13;;;20.90;100.00
55604;BME280;41468;48.838;9.330;2023-08-17T00:51:17;98419.56;;;20.86;100.00
55604;BME280;41468;48.838;9.330;2023-08-17T00:53:47;98418.69;;;20.89;100.00
55604;BME280;41468;48.838;9.330;2023-08-17T00:56:13;98423.31;;;20.95;100.00
55604;BME280;41468;48.838;9.330;2023-08-17T00:58:42;98428.91;;;20.92;100.00
55604;BME280;41468;48.838;9.330;2023-08-17T01:01:09;98414.78;;;20.86;100.00
55604;BME280;41468;48.838;9.330;2023-08-17T01:03:36;98420.09;;;20.81;100.00
55604;BME280;41468;48.838;9.330;2023-08-17T01:06:03;98411.75;;;20.81;100.00
55604;BME280;41468;48.838;9.330;2023-08-17T01:08:30;98417.31;;;20.81;100.00
55604;BME280;41468;48.838;9.330;2023-08-17T01:11:21;98407.94;;;20.74;100.00
55604;BME280;41468;48.838;9.330;2023-08-17T01:24:23;98400.00;;;21.06;100.00
55604;BME280;41468;48.838;9.330;2023-08-17T01:26:50;98394.56;;;21.02;100.00
55604;BME280;41468;48.838;9.330;2023-08-17T01:29:17;98402.03;;;21.05;100.00
55604;BME280;41468;48.838;9.330;2023-08-17T01:34:19;98397.00;;;21.00;100.00
55604;BME280;41468;48.838;9.330;2023-08-17T01:36:53;98397.50;;;20.95;100.00
55604;BME280;41468;48.838;9.330;2023-08-17T01:39:27;98393.69;;;21.05;100.00
55604;BME280;41468;48.838;9.330;2023-08-17T01:41:57;98391.09;;;20.98;100.00
55604;BME280;41468;48.838;9.330;2023-08-17T01:44:25;98391.44;;;21.00;100.00
55604;BME280;41468;48.838;9.330;2023-08-17T01:46:52;98385.38;;;20.89;100.00
55604;BME280;41468;48.838;9.330;2023-08-17T01:49:19;98387.53;;;20.98;100.00
55604;BME280;41468;48.838;9.330;2023-08-17T01:51:46;98380.25;;;21.04;100.00
55604;BME280;41468;48.838;9.330;2023-08-17T01:54:13;98384.25;;;21.03;100.00
55604;BME280;41468;48.838;9.330;2023-08-17T01:56:40;98383.13;;;21.00;100.00
55604;BME280;41468;48.838;9.330;2023-08-17T01:59:06;98377.22;;;20.98;100.00
55604;BME280;41468;48.838;9.330;2023-08-17T02:01:33;98381.03;;;21.04;100.00
55604;BME280;41468;48.838;9.330;2023-08-17T02:04:00;98386.38;;;21.11;100.00
55604;BME280;41468;48.838;9.330;2023-08-17T02:06:28;98384.13;;;21.06;100.00
55604;BME280;41468;48.838;9.330;2023-08-17T02:08:56;98374.78;;;21.00;100.00
55604;BME280;41468;48.838;9.330;2023-08-17T02:11:22;98381.13;;;21.01;100.00
55604;BME280;41468;48.838;9.330;2023-08-17T02:13:49;98379.47;;;21.03;100.00
55604;BME280;41468;48.838;9.330;2023-08-17T02:16:16;98380.34;;;21.00;100.00
55604;BME280;41468;48.838;9.330;2023-08-17T02:18:43;98377.50;;;21.04;100.00
55604;BME280;41468;48.838;9.330;2023-08-17T02:21:09;98385.47;;;21.02;100.00
55604;BME280;41468;48.838;9.330;2023-08-17T02:23:36;98377.13;;;21.02;100.00
55604;BME280;41468;48.838;9.330;2023-08-17T02:26:10;98381.91;;;21.01;100.00
55604;BME280;41468;48.838;9.330;2023-08-17T02:28:37;98377.81;;;21.06;100.00
55604;BME280;41468;48.838;9.330;2023-08-17T02:31:08;98378.25;;;21.04;100.00
55604;BME280;41468;48.838;9.330;2023-08-17T02:33:35;98369.22;;;21.00;100.00
55604;BME280;41468;48.838;9.330;2023-08-17T02:36:03;98363.34;;;20.98;100.00
55604;BME280;41468;48.838;9.330;2023-08-17T02:38:31;98364.47;;;21.01;100.00
55604;BME280;41468;48.838;9.330;2023-08-17T02:40:57;98368.47;;;21.00;100.00
55604;BME280;41468;48.838;9.330;2023-08-17T02:43:24;98356.22;;;20.97;100.00
55604;BME280;41468;48.838;9.330;2023-08-17T02:45:51;98355.00;;;20.98;100.00
55604;BME280;41468;48.838;9.330;2023-08-17T02:48:18;98358.25;;;20.96;100.00
55604;BME280;41468;48.838;9.330;2023-08-17T02:50:45;98355.50;;;20.80;100.00
55604;BME280;41468;48.838;9.330;2023-08-17T02:53:11;98360.41;;;20.89;100.00
55604;BME280;41468;48.838;9.330;2023-08-17T02:55:38;98358.00;;;20.91;100.00
55604;BME280;41468;48.838;9.330;2023-08-17T02:58:05;98360.06;;;20.87;100.00
55604;BME280;41468;48.838;9.330;2023-08-17T03:00:32;98360.94;;;20.84;100.00
55604;BME280;41468;48.838;9.330;2023-08-17T03:02:58;98354.00;;;20.76;100.00
55604;BME280;41468;48.838;9.330;2023-08-17T03:05:25;98357.50;;;20.63;100.00
55604;BME280;41468;48.838;9.330;2023-08-17T03:07:52;98355.16;;;20.62;100.00
55604;BME280;41468;48.838;9.330;2023-08-17T03:10:19;98343.19;;;20.65;100.00
55604;BME280;41468;48.838;9.330;2023-08-17T03:12:46;98337.47;;;20.56;100.00
55604;BME280;41468;48.838;9.330;2023-08-17T03:15:13;98329.75;;;20.63;100.00
55604;BME280;41468;48.838;9.330;2023-08-17T03:17:39;98337.38;;;20.59;100.00
55604;BME280;41468;48.838;9.330;2023-08-17T03:20:07;98324.38;;;20.56;100.00
55604;BME280;41468;48.838;9.330;2023-08-17T03:22:34;98328.63;;;20.61;100.00
55604;BME280;41468;48.838;9.330;2023-08-17T03:25:01;98329.16;;;20.56;100.00
55604;BME280;41468;48.838;9.330;2023-08-17T03:27:29;98330.72;;;20.57;100.00
55604;BME280;41468;48.838;9.330;2023-08-17T03:29:56;98328.00;;;20.53;100.00
55604;BME280;41468;48.838;9.330;2023-08-17T03:32:22;98320.31;;;20.61;100.00
55604;BME280;41468;48.838;9.330;2023-08-17T03:34:49;98315.63;;;20.58;100.00
55604;BME280;41468;48.838;9.330;2023-08-17T03:37:16;98324.03;;;20.54;100.00
55604;BME280;41468;48.838;9.330;2023-08-17T03:39:43;98326.63;;;20.61;100.00
55604;BME280;41468;48.838;9.330;2023-08-17T03:42:10;98321.44;;;20.63;100.00
55604;BME280;41468;48.838;9.330;2023-08-17T03:44:36;98331.97;;;20.68;100.00
55604;BME280;41468;48.838;9.330;2023-08-17T03:47:03;98329.75;;;20.63;100.00
55604;BME280;41468;48.838;9.330;2023-08-17T03:49:30;98334.59;;;20.59;100.00
55604;BME280;41468;48.838;9.330;2023-08-17T03:51:57;98337.63;;;20.65;100.00
55604;BME280;41468;48.838;9.330;2023-08-17T03:54:24;98339.88;;;20.70;100.00
55604;BME280;41468;48.838;9.330;2023-08-17T03:56:50;98340.94;;;20.60;100.00
55604;BME280;41468;48.838;9.330;2023-08-17T03:59:17;98340.84;;;20.63;100.00
55604;BME280;41468;48.838;9.330;2023-08-17T04:01:44;98343.69;;;20.60;100.00
55604;BME280;41468;48.838;9.330;2023-08-17T04:04:11;98347.34;;;20.57;100.00
55604;BME280;41468;48.838;9.330;2023-08-17T04:06:37;98341.19;;;20.65;100.00
55604;BME280;41468;48.838;9.330;2023-08-17T04:09:06;98352.22;;;20.69;100.00
55604;BME280;41468;48.838;9.330;2023-08-17T04:11:35;98356.09;;;20.71;100.00
55604;BME280;41468;48.838;9.330;2023-08-17T04:14:03;98362.25;;;20.63;100.00
55604;BME280;41468;48.838;9.330;2023-08-17T04:16:31;98355.25;;;20.58;100.00
55604;BME280;41468;48.838;9.330;2023-08-17T04:18:58;98363.91;;;20.60;100.00
55604;BME280;41468;48.838;9.330;2023-08-17T04:21:25;98362.94;;;20.67;100.00
55604;BME280;41468;48.838;9.330;2023-08-17T04:23:52;98367.63;;;20.70;100.00
55604;BME280;41468;48.838;9.330;2023-08-17T04:26:24;98366.06;;;20.69;100.00
55604;BME280;41468;48.838;9.330;2023-08-17T04:28:51;98370.75;;;20.72;100.00
55604;BME280;41468;48.838;9.330;2023-08-17T04:31:18;98375.34;;;20.62;100.00
55604;BME280;41468;48.838;9.330;2023-08-17T04:33:45;98373.44;;;20.59;100.00
55604;BME280;41468;48.838;9.330;2023-08-17T04:36:12;98366.59;;;20.64;100.00
55604;BME280;41468;48.838;9.330;2023-08-17T04:38:39;98371.69;;;20.65;100.00
55604;BME280;41468;48.838;9.330;2023-08-17T04:41:05;98365.28;;;20.68;100.00
55604;BME280;41468;48.838;9.330;2023-08-17T04:43:32;98378.38;;;20.68;100.00
55604;BME280;41468;48.838;9.330;2023-08-17T04:45:59;98384.38;;;20.66;100.00
55604;BME280;41468;48.838;9.330;2023-08-17T04:48:26;98373.28;;;20.66;100.00
55604;BME280;41468;48.838;9.330;2023-08-17T04:50:52;98379.50;;;20.70;100.00
55604;BME280;41468;48.838;9.330;2023-08-17T04:53:19;98382.22;;;20.74;100.00
55604;BME280;41468;48.838;9.330;2023-08-17T04:55:46;98389.41;;;20.71;100.00
55604;BME280;41468;48.838;9.330;2023-08-17T04:58:13;98384.97;;;20.74;100.00
55604;BME280;41468;48.838;9.330;2023-08-17T05:00:39;98383.03;;;20.87;100.00
55604;BME280;41468;48.838;9.330;2023-08-17T05:03:06;98392.09;;;20.75;100.00
55604;BME280;41468;48.838;9.330;2023-08-17T05:05:45;98387.47;;;20.68;100.00
55604;BME280;41468;48.838;9.330;2023-08-17T05:08:12;98389.41;;;20.71;100.00
55604;BME280;41468;48.838;9.330;2023-08-17T05:10:40;98390.53;;;20.74;100.00
55604;BME280;41468;48.838;9.330;2023-08-17T05:13:07;98389.56;;;20.81;100.00
55604;BME280;41468;48.838;9.330;2023-08-17T05:15:33;98382.00;;;20.81;100.00
55604;BME280;41468;48.838;9.330;2023-08-17T05:18:00;98386.69;;;20.84;100.00
55604;BME280;41468;48.838;9.330;2023-08-17T05:20:27;98391.28;;;20.91;100.00
55604;BME280;41468;48.838;9.330;2023-08-17T05:22:54;98385.22;;;20.96;100.00
55604;BME280;41468;48.838;9.330;2023-08-17T05:25:21;98385.13;;;21.00;100.00
55604;BME280;41468;48.838;9.330;2023-08-17T05:27:48;98381.56;;;20.99;100.00
55604;BME280;41468;48.838;9.330;2023-08-17T05:30:16;98386.34;;;20.99;100.00
55604;BME280;41468;48.838;9.330;2023-08-17T05:32:43;98385.00;;;21.03;100.00
55604;BME280;41468;48.838;9.330;2023-08-17T05:35:11;98386.13;;;21.06;100.00
55604;BME280;41468;48.838;9.330;2023-08-17T05:37:38;98378.69;;;21.03;100.00
55604;BME280;41468;48.838;9.330;2023-08-17T05:40:05;98387.38;;;21.05;100.00
55604;BME280;41468;48.838;9.330;2023-08-17T05:42:32;98387.19;;;21.12;100.00
55604;BME280;41468;48.838;9.330;2023-08-17T05:44:59;98383.34;;;21.06;100.00
55604;BME280;41468;48.838;9.330;2023-08-17T05:47:26;98390.31;;;20.98;100.00
55604;BME280;41468;48.838;9.330;2023-08-17T05:49:53;98386.09;;;20.93;100.00
55604;BME280;41468;48.838;9.330;2023-08-17T05:52:20;98389.72;;;20.90;100.00
55604;BME280;41468;48.838;9.330;2023-08-17T05:54:47;98397.97;;;20.77;100.00
55604;BME280;41468;48.838;9.330;2023-08-17T05:57:13;98395.81;;;20.85;100.00
55604;BME280;41468;48.838;9.330;2023-08-17T05:59:40;98391.63;;;20.93;100.00
55604;BME280;41468;48.838;9.330;2023-08-17T06:02:07;98394.41;;;20.93;100.00
55604;BME280;41468;48.838;9.330;2023-08-17T06:04:34;98402.41;;;20.91;100.00
55604;BME280;41468;48.838;9.330;2023-08-17T06:07:00;98403.59;;;20.90;100.00
55604;BME280;41468;48.838;9.330;2023-08-17T06:09:27;98404.13;;;20.85;100.00
55604;BME280;41468;48.838;9.330;2023-08-17T06:11:54;98406.03;;;20.88;100.00
55604;BME280;41468;48.838;9.330;2023-08-17T06:14:21;98400.66;;;20.97;100.00
55604;BME280;41468;48.838;9.330;2023-08-17T06:16:48;98396.13;;;21.03;100.00
55604;BME280;41468;48.838;9.330;2023-08-17T06:19:26;98406.34;;;21.23;100.00
55604;BME280;41468;48.838;9.330;2023-08-17T06:21:53;98405.13;;;21.24;100.00
55604;BME280;41468;48.838;9.330;2023-08-17T06:24:20;98411.00;;;21.26;100.00
55604;BME280;41468;48.838;9.330;2023-08-17T06:26:46;98413.16;;;21.34;100.00
55604;BME280;41468;48.838;9.330;2023-08-17T06:29:13;98412.72;;;21.36;100.00
55604;BME280;41468;48.838;9.330;2023-08-17T06:31:40;98419.75;;;21.40;100.00
55604;BME280;41468;48.838;9.330;2023-08-17T06:34:07;98407.00;;;21.43;100.00
55604;BME280;41468;48.838;9.330;2023-08-17T06:36:33;98414.97;;;21.41;100.00
55604;BME280;41468;48.838;9.330;2023-08-17T06:39:01;98413.44;;;21.40;100.00
55604;BME280;41468;48.838;9.330;2023-08-17T06:41:33;98414.25;;;21.53;100.00
55604;BME280;41468;48.838;9.330;2023-08-17T06:44:00;98412.19;;;21.57;100.00
55604;BME280;41468;48.838;9.330;2023-08-17T06:46:26;98414.13;;;21.44;100.00
55604;BME280;41468;48.838;9.330;2023-08-17T06:48:54;98414.81;;;21.32;100.00
55604;BME280;41468;48.838;9.330;2023-08-17T06:51:21;98418.38;;;21.32;100.00
55604;BME280;41468;48.838;9.330;2023-08-17T06:53:48;98414.13;;;21.44;100.00
55604;BME280;41468;48.838;9.330;2023-08-17T06:56:15;98413.13;;;21.51;100.00
55604;BME280;41468;48.838;9.330;2023-08-17T06:58:42;98414.31;;;21.66;100.00
55604;BME280;41468;48.838;9.330;2023-08-17T07:01:08;98411.63;;;21.62;100.00
55604;BME280;41468;48.838;9.330;2023-08-17T07:03:35;98409.53;;;21.67;100.00
55604;BME280;41468;48.838;9.330;2023-08-17T07:06:02;98409.56;;;21.79;100.00
55604;BME280;41468;48.838;9.330;2023-08-17T07:08:29;98410.47;;;21.89;100.00
55604;BME280;41468;48.838;9.330;2023-08-17T07:10:56;98416.50;;;22.13;100.00
55604;BME280;41468;48.838;9.330;2023-08-17T07:13:22;98406.44;;;22.19;100.00
55604;BME280;41468;48.838;9.330;2023-08-17T07:15:49;98414.22;;;22.37;100.00
55604;BME280;41468;48.838;9.330;2023-08-17T07:18:16;98411.34;;;22.41;100.00
55604;BME280;41468;48.838;9.330;2023-08-17T07:20:43;98415.78;;;22.64;100.00
55604;BME280;41468;48.838;9.330;2023-08-17T07:23:10;98416.53;;;22.90;100.00
55604;BME280;41468;48.838;9.330;2023-08-17T07:25:36;98414.06;;;23.40;98.81
55604;BME280;41468;48.838;9.330;2023-08-17T07:28:07;98418.97;;;23.48;92.71
55604;BME280;41468;48.838;9.330;2023-08-17T07:30:34;98420.06;;;23.51;92.68
55604;BME280;41468;48.838;9.330;2023-08-17T07:33:01;98424.47;;;23.26;92.35
55604;BME280;41468;48.838;9.330;2023-08-17T07:35:28;98425.31;;;23.14;94.05
55604;BME280;41468;48.838;9.330;2023-08-17T07:37:55;98420.50;;;23.14;95.55
55604;BME280;41468;48.838;9.330;2023-08-17T07:40:34;98428.31;;;23.07;95.58
55604;BME280;41468;48.838;9.330;2023-08-17T07:43:12;98425.44;;;22.72;98.70
55604;BME280;41468;48.838;9.330;2023-08-17T07:45:39;98420.44;;;23.05;100.00
55604;BME280;41468;48.838;9.330;2023-08-17T07:48:06;98412.66;;;23.35;94.93
55604;BME280;41468;48.838;9.330;2023-08-17T07:50:33;98417.28;;;23.95;94.69
55604;BME280;41468;48.838;9.330;2023-08-17T07:53:00;98419.13;;;24.20;88.13
55604;BME280;41468;48.838;9.330;2023-08-17T07:55:27;98420.78;;;24.08;89.70
55604;BME280;41468;48.838;9.330;2023-08-17T07:57:53;98415.03;;;24.43;85.97
55604;BME280;41468;48.838;9.330;2023-08-17T08:00:20;98415.09;;;24.52;82.80
55604;BME280;41468;48.838;9.330;2023-08-17T08:02:47;98414.19;;;24.55;83.86
55604;BME280;41468;48.838;9.330;2023-08-17T08:05:14;98415.66;;;24.78;85.16
55604;BME280;41468;48.838;9.330;2023-08-17T08:07:41;98411.75;;;24.76;83.06
55604;BME280;41468;48.838;9.330;2023-08-17T08:10:08;98409.78;;;24.95;81.79
55604;BME280;41468;48.838;9.330;2023-08-17T08:12:35;98410.13;;;24.97;81.08
55604;BME280;41468;48.838;9.330;2023-08-17T08:15:02;98408.44;;;25.36;80.72
55604;BME280;41468;48.838;9.330;2023-08-17T08:17:29;98412.50;;;25.44;79.41
55604;BME280;41468;48.838;9.330;2023-08-17T08:19:56;98413.56;;;25.10;81.11
55604;BME280;41468;48.838;9.330;2023-08-17T08:22:23;98413.88;;;25.30;78.99
55604;BME280;41468;48.838;9.330;2023-08-17T08:24:50;98410.66;;;25.23;77.89
55604;BME280;41468;48.838;9.330;2023-08-17T08:27:17;98401.31;;;25.35;78.49
55604;BME280;41468;48.838;9.330;2023-08-17T08:29:44;98406.28;;;25.22;77.75
55604;BME280;41468;48.838;9.330;2023-08-17T08:32:11;98404.72;;;25.48;77.85
55604;BME280;41468;48.838;9.330;2023-08-17T08:34:38;98405.97;;;25.84;75.68
55604;BME280;41468;48.838;9.330;2023-08-17T08:37:04;98405.59;;;26.00;76.04
55604;BME280;41468;48.838;9.330;2023-08-17T08:39:31;98404.47;;;26.16;74.00
55604;BME280;41468;48.838;9.330;2023-08-17T08:41:58;98402.25;;;26.39;72.52
55604;BME280;41468;48.838;9.330;2023-08-17T08:44:25;98393.09;;;26.29;74.01
55604;BME280;41468;48.838;9.330;2023-08-17T08:46:53;98394.13;;;26.41;74.44
55604;BME280;41468;48.838;9.330;2023-08-17T08:49:23;98394.56;;;26.58;71.22
55604;BME280;41468;48.838;9.330;2023-08-17T08:51:50;98398.03;;;26.77;72.37
55604;BME280;41468;48.838;9.330;2023-08-17T08:54:22;98405.59;;;26.85;71.47
55604;BME280;41468;48.838;9.330;2023-08-17T08:56:59;98403.78;;;26.73;71.93
55604;BME280;41468;48.838;9.330;2023-08-17T08:59:28;98409.66;;;26.84;71.28
55604;BME280;41468;48.838;9.330;2023-08-17T09:01:57;98413.34;;;26.91;71.69
55604;BME280;41468;48.838;9.330;2023-08-17T09:04:25;98406.44;;;27.01;71.47
55604;BME280;41468;48.838;9.330;2023-08-17T09:06:53;98404.72;;;27.03;71.03
55604;BME280;41468;48.838;9.330;2023-08-17T09:09:20;98402.91;;;27.15;71.37
55604;BME280;41468;48.838;9.330;2023-08-17T09:11:48;98397.38;;;27.06;71.44
55604;BME280;41468;48.838;9.330;2023-08-17T09:14:14;98400.88;;;26.92;70.11
55604;BME280;41468;48.838;9.330;2023-08-17T09:16:41;98399.88;;;26.80;70.52
55604;BME280;41468;48.838;9.330;2023-08-17T09:19:08;98395.81;;;27.05;69.88
55604;BME280;41468;48.838;9.330;2023-08-17T09:21:35;98400.09;;;27.15;71.45
55604;BME280;41468;48.838;9.330;2023-08-17T09:24:02;98404.66;;;27.37;68.62
55604;BME280;41468;48.838;9.330;2023-08-17T09:26:32;98400.13;;;26.91;70.56
55604;BME280;41468;48.838;9.330;2023-08-17T09:28:59;98396.91;;;27.31;68.46
55604;BME280;41468;48.838;9.330;2023-08-17T09:31:30;98394.53;;;27.54;69.59
55604;BME280;41468;48.838;9.330;2023-08-17T09:33:57;98382.25;;;27.66;70.16
55604;BME280;41468;48.838;9.330;2023-08-17T09:36:25;98385.41;;;27.98;68.09
55604;BME280;41468;48.838;9.330;2023-08-17T09:38:52;98384.69;;;28.18;65.45
55604;BME280;41468;48.838;9.330;2023-08-17T09:41:20;98393.09;;;28.48;67.43
55604;BME280;41468;48.838;9.330;2023-08-17T09:43:54;98383.34;;;28.63;64.20
55604;BME280;41468;48.838;9.330;2023-08-17T09:46:21;98383.81;;;28.77;64.95
55604;BME280;41468;48.838;9.330;2023-08-17T09:48:54;98387.19;;;28.81;63.00
55604;BME280;41468;48.838;9.330;2023-08-17T09:51:21;98381.25;;;28.58;63.37
55604;BME280;41468;48.838;9.330;2023-08-17T09:53:54;98375.72;;;28.64;63.92
55604;BME280;41468;48.838;9.330;2023-08-17T09:56:26;98380.44;;;28.73;64.79
55604;BME280;41468;48.838;9.330;2023-08-17T09:58:53;98371.69;;;28.85;63.00
55604;BME280;41468;48.838;9.330;2023-08-17T10:01:21;98373.66;;;29.20;62.17
55604;BME280;41468;48.838;9.330;2023-08-17T10:03:49;98370.09;;;29.46;62.66
55604;BME280;41468;48.838;9.330;2023-08-17T10:06:20;98375.00;;;29.71;62.20
55604;BME280;41468;48.838;9.330;2023-08-17T10:08:52;98368.16;;;29.78;59.91
55604;BME280;41468;48.838;9.330;2023-08-17T10:11:22;98363.53;;;29.75;59.29
55604;BME280;41468;48.838;9.330;2023-08-17T10:13:58;98367.53;;;29.68;60.56
55604;BME280;41468;48.838;9.330;2023-08-17T10:17:00;98366.81;;;28.86;62.34
55604;BME280;41468;48.838;9.330;2023-08-17T10:22:16;98370.63;;;29.24;62.00
55604;BME280;41468;48.838;9.330;2023-08-17T10:24:45;98363.44;;;29.23;62.09
55604;BME280;41468;48.838;9.330;2023-08-17T10:27:13;98361.56;;;29.61;60.33
55604;BME280;41468;48.838;9.330;2023-08-17T10:29:41;98359.81;;;29.89;60.37
55604;BME280;41468;48.838;9.330;2023-08-17T10:32:08;98356.81;;;29.99;58.95
55604;BME280;41468;48.838;9.330;2023-08-17T10:34:35;98354.41;;;30.17;58.20
55604;BME280;41468;48.838;9.330;2023-08-17T10:37:03;98360.13;;;30.23;58.82
55604;BME280;41468;48.838;9.330;2023-08-17T10:39:30;98356.19;;;30.15;57.02
55604;BME280;41468;48.838;9.330;2023-08-17T10:41:58;98355.78;;;30.28;57.90
55604;BME280;41468;48.838;9.330;2023-08-17T10:44:44;98356.66;;;30.45;59.35
55604;BME280;41468;48.838;9.330;2023-08-17T10:47:31;98355.97;;;30.56;57.66
55604;BME280;41468;48.838;9.330;2023-08-17T10:50:06;98361.72;;;30.35;55.23
55604;BME280;41468;48.838;9.330;2023-08-17T10:52:36;98354.59;;;30.40;57.31
55604;BME280;41468;48.838;9.330;2023-08-17T10:55:08;98357.44;;;30.89;57.01
55604;BME280;41468;48.838;9.330;2023-08-17T10:57:37;98348.72;;;30.87;57.32
55604;BME280;41468;48.838;9.330;2023-08-17T11:00:24;98341.78;;;30.82;55.76
55604;BME280;41468;48.838;9.330;2023-08-17T11:02:55;98336.25;;;31.10;55.01
55604;BME280;41468;48.838;9.330;2023-08-17T11:08:11;98339.16;;;31.33;55.65
55604;BME280;41468;48.838;9.330;2023-08-17T11:10:40;98330.00;;;31.55;55.35
55604;BME280;41468;48.838;9.330;2023-08-17T11:13:13;98332.28;;;31.67;54.73
55604;BME280;41468;48.838;9.330;2023-08-17T11:15:41;98327.94;;;31.78;54.94
55604;BME280;41468;48.838;9.330;2023-08-17T11:18:14;98330.00;;;31.72;54.27
55604;BME280;41468;48.838;9.330;2023-08-17T11:20:42;98331.28;;;31.76;53.84
55604;BME280;41468;48.838;9.330;2023-08-17T11:23:09;98327.44;;;31.62;53.78
55604;BME280;41468;48.838;9.330;2023-08-17T11:25:37;98320.00;;;31.82;53.71
55604;BME280;41468;48.838;9.330;2023-08-17T11:28:06;98319.53;;;31.95;54.57
55604;BME280;41468;48.838;9.330;2023-08-17T11:30:36;98317.97;;;31.99;54.44
55604;BME280;41468;48.838;9.330;2023-08-17T11:33:10;98308.22;;;31.95;52.35
55604;BME280;41468;48.838;9.330;2023-08-17T11:35:37;98315.38;;;32.07;53.99
55604;BME280;41468;48.838;9.330;2023-08-17T11:38:04;98308.97;;;32.18;55.37
55604;BME280;41468;48.838;9.330;2023-08-17T11:40:34;98305.91;;;32.04;56.05
55604;BME280;41468;48.838;9.330;2023-08-17T11:43:02;98302.28;;;31.76;56.29
55604;BME280;41468;48.838;9.330;2023-08-17T11:45:29;98303.03;;;31.59;56.66
55604;BME280;41468;48.838;9.330;2023-08-17T11:47:56;98300.75;;;31.52;57.34
55604;BME280;41468;48.838;9.330;2023-08-17T11:50:24;98308.94;;;31.56;58.41
55604;BME280;41468;48.838;9.330;2023-08-17T11:52:51;98309.47;;;31.71;57.87
55604;BME280;41468;48.838;9.330;2023-08-17T11:55:18;98302.03;;;31.68;57.26
55604;BME280;41468;48.838;9.330;2023-08-17T11:57:47;98314.59;;;31.50;57.49
55604;BME280;41468;48.838;9.330;2023-08-17T12:00:18;98313.28;;;31.57;56.92
55604;BME280;41468;48.838;9.330;2023-08-17T12:02:50;98325.59;;;31.48;58.10
55604;BME280;41468;48.838;9.330;2023-08-17T12:05:24;98313.28;;;31.51;57.92
55604;BME280;41468;48.838;9.330;2023-08-17T12:07:53;98324.56;;;31.45;57.83
55604;BME280;41468;48.838;9.330;2023-08-17T12:10:21;98337.31;;;31.30;58.64
55604;BME280;41468;48.838;9.330;2023-08-17T12:12:51;98334.09;;;30.83;58.58
55604;BME280;41468;48.838;9.330;2023-08-17T12:15:18;98334.09;;;30.40;60.07
55604;BME280;41468;48.838;9.330;2023-08-17T12:17:46;98331.06;;;30.11;61.34
55604;BME280;41468;48.838;9.330;2023-08-17T12:20:18;98346.19;;;29.82;62.50
55604;BME280;41468;48.838;9.330;2023-08-17T12:22:48;98350.56;;;29.63;62.86
55604;BME280;41468;48.838;9.330;2023-08-17T12:25:15;98357.16;;;29.54;63.66
55604;BME280;41468;48.838;9.330;2023-08-17T12:27:42;98351.75;;;29.50;62.90
55604;BME280;41468;48.838;9.330;2023-08-17T12:30:13;98337.78;;;29.36;63.86
55604;BME280;41468;48.838;9.330;2023-08-17T12:32:51;98344.41;;;29.12;64.75
55604;BME280;41468;48.838;9.330;2023-08-17T12:35:19;98327.22;;;29.04;65.03
55604;BME280;41468;48.838;9.330;2023-08-17T12:37:48;98322.56;;;28.81;65.72
55604;BME280;41468;48.838;9.330;2023-08-17T12:40:15;98325.78;;;28.74;66.62
55604;BME280;41468;48.838;9.330;2023-08-17T12:42:41;98326.78;;;28.71;67.97
55604;BME280;41468;48.838;9.330;2023-08-17T12:45:08;98329.22;;;28.63;67.68
55604;BME280;41468;48.838;9.330;2023-08-17T12:47:35;98334.97;;;28.54;68.66
55604;BME280;41468;48.838;9.330;2023-08-17T12:50:03;98329.56;;;28.50;69.51
55604;BME280;41468;48.838;9.330;2023-08-17T12:52:30;98338.41;;;28.43;69.10
55604;BME280;41468;48.838;9.330;2023-08-17T12:54:57;98348.19;;;28.33;69.73
55604;BME280;41468;48.838;9.330;2023-08-17T12:57:24;98364.84;;;28.22;69.95
55604;BME280;41468;48.838;9.330;2023-08-17T12:59:53;98370.47;;;28.22;70.27
55604;BME280;41468;48.838;9.330;2023-08-17T13:02:20;98369.41;;;28.04;70.67
55604;BME280;41468;48.838;9.330;2023-08-17T13:04:47;98371.28;;;27.92;71.86
55604;BME280;41468;48.838;9.330;2023-08-17T13:07:14;98369.81;;;27.82;70.34
55604;BME280;41468;48.838;9.330;2023-08-17T13:09:42;98365.81;;;27.74;71.13
55604;BME280;41468;48.838;9.330;2023-08-17T13:12:09;98358.94;;;27.60;70.13
55604;BME280;41468;48.838;9.330;2023-08-17T13:14:35;98361.16;;;27.56;70.67
55604;BME280;41468;48.838;9.330;2023-08-17T13:17:03;98370.06;;;27.54;70.99
55604;BME280;41468;48.838;9.330;2023-08-17T13:19:29;98380.22;;;27.52;70.83